Time;durP1;ratioP1;P1;durP2;ratioP2;P2;SDS_P1;SDS_P2;PMS_P1;PMS_P2;Temp;Humidity;BMP_temperature;BMP_pressure;BME280_temperature;BME280_humidity;BME280_pressure;Samples;Min_cycle;Max_cycle;Signal;HPM_P1;HPM_P2
2021/05/24 00:02:15;;;;;;;3.47;1.50;;;10.30;99.90;;;11.68;62.66;100276.97;4918634;29;20372;-81
2021/05/24 00:04:42;;;;;;;2.60;1.10;;;10.30;99.90;;;11.61;62.61;100272.06;4921435;29;20040;-80
2021/05/24 00:07:09;;;;;;;1.48;0.90;;;10.20;99.90;;;11.56;62.80;100275.16;4921206;29;20032;-80
2021/05/24 00:09:35;;;;;;;4.38;1.13;;;10.20;99.90;;;11.53;62.86;100270.31;4918925;29;20036;-80
2021/05/24 00:12:05;;;;;;;2.88;1.00;;;10.20;99.90;;;11.54;63.21;100266.34;4921205;29;20147;-81
2021/05/24 00:14:34;;;;;;;3.10;1.25;;;10.20;99.90;;;11.50;63.27;100265.47;4999340;23;20040;-81
2021/05/24 00:17:01;;;;;;;2.60;1.20;;;10.20;99.90;;;11.52;62.91;100265.94;4944081;28;20506;-83
2021/05/24 00:19:27;;;;;;;2.33;0.95;;;10.20;99.90;;;11.54;63.18;100271.94;4944224;29;20267;-83
2021/05/24 00:21:53;;;;;;;6.45;1.50;;;10.30;99.90;;;11.60;62.71;100259.25;4944987;29;20032;-82
2021/05/24 00:24:19;;;;;;;3.45;1.08;;;10.20;99.90;;;11.67;63.27;100253.78;4940703;29;20035;-82
2021/05/24 00:26:45;;;;;;;2.22;1.00;;;10.30;99.90;;;11.64;63.51;100254.53;4911601;29;20036;-82
2021/05/24 00:29:15;;;;;;;6.28;1.17;;;10.30;99.90;;;11.67;63.49;100253.78;4932945;29;20031;-81
2021/05/24 00:31:42;;;;;;;2.92;1.10;;;10.30;99.90;;;11.65;63.94;100245.75;4932611;29;20042;-82
2021/05/24 00:34:08;;;;;;;2.10;1.02;;;10.30;99.90;;;11.63;63.87;100247.31;4933932;29;20031;-83
2021/05/24 00:36:34;;;;;;;3.67;1.10;;;10.30;99.90;;;11.64;64.32;100235.78;4942027;29;20088;-82
2021/05/24 00:39:00;;;;;;;4.95;1.15;;;10.30;99.90;;;11.65;64.24;100228.97;4951906;28;20515;-82
2021/05/24 00:41:26;;;;;;;1.10;0.98;;;10.30;99.90;;;11.66;64.55;100232.59;4955301;29;20031;-83
2021/05/24 00:43:53;;;;;;;3.22;1.00;;;10.30;99.90;;;11.70;64.55;100232.66;4937054;29;20062;-82
2021/05/24 00:46:20;;;;;;;3.75;1.30;;;10.40;99.90;;;11.86;64.48;100228.53;4930960;29;20119;-81
2021/05/24 00:48:46;;;;;;;4.35;0.90;;;10.60;99.90;;;11.94;64.35;100224.69;4941234;29;20035;-84
2021/05/24 00:51:12;;;;;;;2.72;0.85;;;10.60;99.90;;;11.87;64.93;100220.97;4954451;28;20043;-83
2021/05/24 00:53:37;;;;;;;3.83;0.70;;;10.60;99.90;;;11.90;65.31;100212.63;4936089;29;20020;-84
2021/05/24 00:56:04;;;;;;;2.10;0.80;;;10.70;99.90;;;12.02;64.75;100215.19;4947005;29;20084;-82
2021/05/24 00:58:30;;;;;;;2.92;1.25;;;10.80;99.90;;;12.13;64.85;100215.34;4941095;29;20024;-82
2021/05/24 01:00:56;;;;;;;2.65;1.00;;;10.90;99.90;;;12.20;64.24;100209.03;4934812;29;20051;-84
2021/05/24 01:03:22;;;;;;;2.78;0.82;;;11.00;99.90;;;12.21;65.06;100207.84;4930937;29;20102;-82
2021/05/24 01:05:48;;;;;;;3.67;0.77;;;10.90;99.90;;;12.20;65.03;100200.63;4929128;29;20032;-82
2021/05/24 01:08:15;;;;;;;2.63;0.80;;;11.00;99.90;;;12.18;65.35;100194.59;4927642;29;20471;-84
2021/05/24 01:10:44;;;;;;;4.03;0.70;;;11.00;99.90;;;12.22;65.20;100193.47;4941700;29;20484;-83
2021/05/24 01:13:12;;;;;;;2.92;0.80;;;11.00;99.90;;;12.26;64.57;100185.13;4935701;29;20055;-82
2021/05/24 01:15:39;;;;;;;1.85;0.80;;;11.00;99.90;;;12.34;65.06;100179.22;4957464;28;20028;-84
2021/05/24 01:18:06;;;;;;;3.40;0.60;;;11.10;99.90;;;12.43;65.21;100168.50;4934996;29;20038;-84
2021/05/24 01:20:33;;;;;;;3.95;1.00;;;11.20;99.90;;;12.38;65.09;100171.66;4921322;29;20492;-84
2021/05/24 01:25:31;;;;;;;2.55;1.05;;;11.10;99.90;;;12.40;65.44;100168.47;4950342;29;20091;-82
2021/05/24 01:27:58;;;;;;;4.30;0.82;;;11.10;99.90;;;12.31;65.47;100159.56;4941797;29;20032;-84
2021/05/24 01:30:26;;;;;;;2.67;0.68;;;11.10;99.90;;;12.30;65.20;100163.53;4933788;29;20032;-78
2021/05/24 01:32:52;;;;;;;2.17;0.68;;;11.10;99.90;;;12.38;65.47;100166.06;4969357;29;20230;-80
2021/05/24 01:35:18;;;;;;;2.63;0.80;;;11.00;99.90;;;12.31;65.61;100162.38;4933453;29;20108;-80
2021/05/24 01:37:44;;;;;;;2.67;0.60;;;11.00;99.90;;;12.33;65.71;100160.78;4946641;28;20036;-80
2021/05/24 01:40:12;;;;;;;2.42;0.60;;;11.10;99.90;;;12.47;65.29;100160.97;4937415;28;20036;-83
2021/05/24 01:42:38;;;;;;;1.80;0.52;;;11.20;99.90;;;12.58;65.32;100169.50;4935470;29;20031;-84
2021/05/24 01:45:07;;;;;;;1.85;0.70;;;11.20;99.90;;;12.59;65.38;100168.28;4928662;29;20122;-83
2021/05/24 01:47:33;;;;;;;2.53;0.70;;;11.30;99.90;;;12.63;65.12;100163.53;4939407;29;20135;-82
2021/05/24 01:50:00;;;;;;;1.60;0.60;;;11.30;99.90;;;12.67;64.55;100161.59;4938079;29;20051;-83
2021/05/24 01:52:26;;;;;;;2.83;0.65;;;11.40;99.90;;;12.79;64.25;100161.31;4939564;29;20028;-82
2021/05/24 01:54:52;;;;;;;1.90;0.85;;;11.50;99.90;;;12.74;65.06;100152.47;4937073;29;20047;-84
2021/05/24 01:57:18;;;;;;;0.73;0.60;;;11.40;99.90;;;12.78;64.21;100150.50;4933935;29;20028;-83
2021/05/24 01:59:43;;;;;;;1.70;0.60;;;11.50;99.90;;;12.77;64.41;100151.69;4926238;29;20060;-85
2021/05/24 02:02:09;;;;;;;0.70;0.60;;;11.40;99.90;;;12.78;64.21;100154.09;4938460;29;20028;-83
2021/05/24 02:04:35;;;;;;;2.13;0.63;;;11.40;99.90;;;12.78;65.05;100150.50;4938225;29;20036;-85
2021/05/24 02:07:03;;;;;;;2.17;1.00;;;11.40;99.90;;;12.74;65.05;100142.06;4939086;29;20507;-81
2021/05/24 02:09:29;;;;;;;3.53;0.75;;;11.40;99.90;;;12.68;65.09;100147.19;4942899;28;20035;-81
2021/05/24 02:11:55;;;;;;;3.05;1.30;;;11.40;99.90;;;12.65;65.21;100156.34;4938058;29;20032;-82
2021/05/24 02:14:22;;;;;;;3.45;0.75;;;11.50;99.90;;;12.72;64.92;100150.03;4939491;29;20126;-81
2021/05/24 02:16:50;;;;;;;3.95;0.73;;;11.50;99.90;;;12.72;64.64;100149.22;4939546;29;20059;-81
2021/05/24 02:19:19;;;;;;;3.70;0.77;;;11.40;99.90;;;12.65;64.58;100147.94;4939446;29;20023;-81
2021/05/24 02:21:46;;;;;;;4.32;0.70;;;11.40;99.90;;;12.58;65.36;100150.72;4939282;29;20084;-83
2021/05/24 02:24:13;;;;;;;1.80;0.70;;;11.40;99.90;;;12.63;65.03;100141.94;4937052;29;20031;-84
2021/05/24 02:26:44;;;;;;;3.47;1.02;;;11.30;99.90;;;12.59;65.22;100137.47;4938261;29;20091;-82
2021/05/24 02:29:12;;;;;;;1.70;0.50;;;11.30;99.90;;;12.58;65.68;100136.69;4938719;29;20027;-80
2021/05/24 02:31:39;;;;;;;3.60;0.80;;;11.20;99.90;;;12.56;65.26;100127.03;4938041;29;20036;-82
2021/05/24 02:34:08;;;;;;;2.47;0.50;;;11.30;99.90;;;12.60;65.31;100119.47;4937984;29;20106;-82
2021/05/24 02:36:35;;;;;;;3.10;0.75;;;11.30;99.90;;;12.53;65.54;100125.00;4926362;29;20027;-85
2021/05/24 02:39:09;;;;;;;3.47;0.70;;;11.30;99.90;;;12.48;65.79;100128.97;4926489;29;20039;-85
2021/05/24 02:41:37;;;;;;;2.67;0.73;;;11.20;99.90;;;12.38;66.29;100126.06;4929387;29;20028;-81
2021/05/24 02:44:06;;;;;;;1.35;1.10;;;11.20;99.90;;;12.31;66.19;100125.97;4938673;29;20036;-83
2021/05/24 02:46:33;;;;;;;2.40;0.88;;;11.10;99.90;;;12.26;66.45;100120.72;4933233;28;20063;-82
2021/05/24 02:49:00;;;;;;;2.72;0.70;;;11.00;99.90;;;12.28;66.75;100115.53;4922998;29;20028;-84
2021/05/24 02:51:26;;;;;;;3.15;0.90;;;11.00;99.90;;;12.20;66.96;100111.81;4938309;29;20072;-83
2021/05/24 02:53:52;;;;;;;5.07;1.05;;;11.00;99.90;;;12.10;67.80;100104.91;4941482;29;20039;-84
2021/05/24 02:56:18;;;;;;;2.70;1.08;;;10.90;99.90;;;12.08;67.81;100117.69;4942973;29;20032;-84
2021/05/24 02:58:44;;;;;;;1.50;1.00;;;10.80;99.90;;;12.13;67.65;100108.97;4958136;28;20051;-84
2021/05/24 03:01:11;;;;;;;2.28;0.63;;;10.80;99.90;;;12.08;67.88;100112.09;4940966;29;20079;-83
2021/05/24 03:03:38;;;;;;;2.45;0.88;;;10.80;99.90;;;12.18;67.60;100102.22;4941105;29;20027;-84
2021/05/24 03:06:04;;;;;;;6.13;0.82;;;10.80;99.90;;;12.02;68.11;100103.22;4958023;28;20035;-82
2021/05/24 03:08:35;;;;;;;1.88;0.60;;;10.70;99.90;;;12.08;67.99;100104.50;4941498;29;20028;-83
2021/05/24 03:11:01;;;;;;;2.78;0.95;;;10.80;99.90;;;11.99;68.05;100092.00;4940236;29;20162;-82
2021/05/24 03:13:28;;;;;;;2.30;0.60;;;10.70;99.90;;;12.08;67.98;100093.31;4943648;29;20500;-83
2021/05/24 03:15:55;;;;;;;1.85;0.90;;;10.80;99.90;;;12.17;68.26;100087.41;4942274;29;20023;-83
2021/05/24 03:18:21;;;;;;;1.10;0.70;;;10.80;99.90;;;12.05;68.33;100091.28;4940892;29;20122;-83
2021/05/24 03:20:48;;;;;;;1.35;0.70;;;10.80;99.90;;;12.19;67.70;100090.63;4941132;29;20028;-83
2021/05/24 03:23:14;;;;;;;3.38;0.60;;;10.80;99.90;;;12.21;67.83;100084.63;4940917;29;20122;-82
2021/05/24 03:25:40;;;;;;;1.85;0.60;;;10.90;99.90;;;12.23;67.55;100079.47;4941554;29;20091;-82
2021/05/24 03:28:06;;;;;;;1.70;0.60;;;10.90;99.90;;;12.23;67.39;100077.50;4939309;29;20024;-82
2021/05/24 03:30:32;;;;;;;5.53;0.85;;;10.90;99.90;;;12.31;67.41;100081.97;4931337;29;20354;-84
2021/05/24 03:32:58;;;;;;;1.00;0.60;;;10.90;99.90;;;12.33;67.17;100093.59;4933213;29;20441;-82
2021/05/24 03:35:24;;;;;;;2.38;0.70;;;11.00;99.90;;;12.28;67.75;100088.34;4940116;29;20035;-82
2021/05/24 03:37:52;;;;;;;1.45;0.65;;;11.00;99.90;;;12.38;66.90;100081.25;4930159;29;20032;-83
2021/05/24 03:40:18;;;;;;;2.58;0.70;;;11.00;99.90;;;12.40;67.17;100085.25;4946929;29;20091;-85
2021/05/24 03:42:44;;;;;;;3.83;0.93;;;11.20;99.90;;;12.56;66.01;100071.81;4943480;28;20035;-83
2021/05/24 03:45:22;;;;;;;2.22;0.57;;;11.30;99.90;;;12.63;66.24;100076.69;4943084;29;20031;-84
2021/05/24 03:47:50;;;;;;;2.97;0.82;;;11.30;99.90;;;12.83;64.88;100069.69;4926523;29;20486;-84
2021/05/24 03:50:17;;;;;;;1.52;0.57;;;11.40;99.90;;;12.91;64.85;100067.72;4922208;29;20028;-84
2021/05/24 03:52:44;;;;;;;3.60;0.90;;;11.60;99.90;;;12.97;65.32;100066.97;4921490;29;20047;-87
2021/05/24 03:55:17;;;;;;;0.95;0.40;;;11.70;99.90;;;13.02;64.77;100068.63;4921682;29;20028;-84
2021/05/24 03:57:47;;;;;;;3.17;0.80;;;11.70;99.90;;;13.17;64.02;100071.19;4931755;29;20056;-84
2021/05/24 04:00:15;;;;;;;2.72;0.93;;;11.80;99.90;;;13.28;64.05;100062.03;4930235;29;20028;-83
2021/05/24 04:02:42;;;;;;;2.85;0.50;;;11.90;99.90;;;13.31;63.27;100056.47;4926486;29;20028;-83
2021/05/24 04:05:17;;;;;;;5.57;0.82;;;12.00;99.90;;;13.48;61.70;100061.38;4932986;29;20040;-84
2021/05/24 04:07:49;;;;;;;1.75;0.65;;;12.20;99.90;;;13.55;62.21;100055.00;4939290;29;20028;-82
2021/05/24 04:10:17;;;;;;;2.60;0.60;;;12.40;99.90;;;13.70;61.16;100062.31;4941473;29;20106;-84
2021/05/24 04:12:44;;;;;;;4.30;0.60;;;12.50;99.90;;;13.93;60.53;100057.19;4940739;29;20043;-84
2021/05/24 04:15:14;;;;;;;2.63;0.80;;;12.60;99.90;;;14.03;60.30;100050.00;4940774;29;20066;-83
2021/05/24 04:17:41;;;;;;;2.45;0.60;;;12.70;99.90;;;14.10;60.08;100058.44;4941696;29;20024;-85
2021/05/24 04:20:11;;;;;;;2.53;1.00;;;12.80;99.90;;;14.14;59.74;100062.06;4937551;29;20074;-83
2021/05/24 04:22:39;;;;;;;3.28;0.90;;;12.80;99.90;;;14.14;59.93;100045.22;4936339;29;20024;-83
2021/05/24 04:25:08;;;;;;;5.63;0.50;;;12.90;99.90;;;14.29;59.27;100046.84;4928881;29;20171;-82
2021/05/24 04:27:35;;;;;;;2.50;0.55;;;13.00;99.90;;;14.37;58.77;100042.09;4941846;29;20031;-83
2021/05/24 04:30:02;;;;;;;4.07;1.27;;;13.10;99.90;;;14.49;59.27;100033.28;4945561;29;20031;-84
2021/05/24 04:32:28;;;;;;;2.30;0.52;;;13.20;99.90;;;14.49;57.94;100036.09;4946425;29;20040;-83
2021/05/24 04:34:53;;;;;;;2.78;0.60;;;13.30;99.90;;;14.83;57.61;100031.72;4947933;29;20047;-81
2021/05/24 04:37:19;;;;;;;3.00;0.57;;;13.40;99.90;;;14.76;57.68;100040.16;4947547;29;20055;-83
2021/05/24 04:39:45;;;;;;;5.25;0.80;;;13.50;99.90;;;14.89;57.08;100044.16;4946263;29;20027;-84
2021/05/24 04:42:13;;;;;;;1.35;0.52;;;13.70;99.90;;;14.80;57.41;100037.34;4944613;29;20031;-81
2021/05/24 04:44:40;;;;;;;1.88;0.50;;;13.70;99.90;;;14.88;56.43;100036.13;4944618;29;20559;-83
2021/05/24 04:47:07;;;;;;;5.63;0.70;;;13.70;99.90;;;14.88;56.33;100030.50;4944286;29;20032;-83
2021/05/24 04:49:33;;;;;;;3.38;0.75;;;13.80;99.90;;;14.97;56.70;100033.69;4942369;29;20418;-82
2021/05/24 04:52:01;;;;;;;2.50;0.82;;;13.80;99.90;;;15.07;56.44;100027.28;4928498;29;20083;-82
2021/05/24 04:54:27;;;;;;;2.35;0.60;;;13.90;99.90;;;15.06;56.33;100026.47;4943915;29;20054;-84
2021/05/24 04:56:54;;;;;;;3.38;0.82;;;14.00;99.90;;;15.24;55.35;100032.88;4931766;29;20024;-84
2021/05/24 04:59:20;;;;;;;3.03;0.90;;;14.00;99.90;;;15.29;55.14;100024.03;4937296;29;20102;-84
2021/05/24 05:01:52;;;;;;;3.30;0.80;;;14.10;99.90;;;14.98;55.20;100032.50;4929831;29;20079;-85
2021/05/24 05:04:19;;;;;;;2.05;0.65;;;14.00;99.90;;;15.22;54.75;100023.22;4911499;29;20536;-85
2021/05/24 05:06:46;;;;;;;3.42;0.70;;;14.10;99.90;;;15.35;55.06;100023.63;4926742;29;20028;-85
2021/05/24 05:09:15;;;;;;;4.95;0.65;;;14.10;99.90;;;15.26;54.88;100024.84;4940411;29;20035;-83
2021/05/24 05:11:42;;;;;;;1.20;0.57;;;14.20;99.90;;;15.28;54.49;100016.00;4936971;29;20111;-84
2021/05/24 05:14:43;;;;;;;3.45;0.60;;;14.10;99.90;;;15.21;55.10;100016.00;4937451;29;20051;-84
2021/05/24 05:17:09;;;;;;;3.55;0.93;;;14.00;99.90;;;15.39;54.44;100015.97;4934559;29;20040;-83
2021/05/24 05:19:37;;;;;;;1.50;0.50;;;14.20;99.90;;;15.45;53.50;100017.16;4928183;29;20036;-82
2021/05/24 05:22:03;;;;;;;3.17;0.70;;;14.40;99.90;;;15.75;53.77;100021.13;4941669;29;20042;-80
2021/05/24 05:24:29;;;;;;;1.13;0.60;;;14.50;99.90;;;15.88;52.94;100027.09;4927729;29;20028;-83
2021/05/24 05:26:58;;;;;;;3.03;0.52;;;14.70;99.90;;;16.00;52.60;100018.19;4926562;29;20119;-82
2021/05/24 05:29:24;;;;;;;1.60;0.90;;;14.80;99.90;;;15.97;53.17;100013.38;4938101;29;20028;-81
2021/05/24 05:31:53;;;;;;;1.08;0.60;;;14.80;99.90;;;15.63;53.51;100015.13;4927591;29;20554;-82
2021/05/24 05:34:19;;;;;;;2.63;0.43;;;14.60;99.90;;;15.40;53.54;100015.56;4928200;29;20032;-86
2021/05/24 05:36:45;;;;;;;2.70;0.70;;;14.50;99.90;;;15.72;53.55;100018.31;4924316;29;20043;-83
2021/05/24 05:39:31;;;;;;;2.83;0.75;;;14.60;99.90;;;15.88;52.23;100010.19;4927282;29;20024;-84
2021/05/24 05:41:57;;;;;;;2.80;0.60;;;14.80;99.90;;;16.25;51.78;100012.41;4928425;29;20118;-85
2021/05/24 05:44:23;;;;;;;2.00;0.60;;;15.00;99.90;;;16.11;51.05;100021.75;4929753;29;20036;-84
2021/05/24 05:46:49;;;;;;;2.20;0.80;;;15.20;99.90;;;16.12;52.13;100022.53;4925482;29;20043;-85
2021/05/24 05:49:15;;;;;;;2.85;0.60;;;15.10;99.90;;;16.09;51.51;100014.91;4920753;29;20127;-81
2021/05/24 05:51:41;;;;;;;5.25;0.80;;;15.10;99.90;;;16.35;51.57;100015.16;4922296;29;20063;-84
2021/05/24 05:54:07;;;;;;;2.35;0.50;;;15.30;99.90;;;16.81;50.34;100008.41;4938241;29;20102;-84
2021/05/24 05:56:33;;;;;;;3.05;0.90;;;15.50;99.90;;;16.80;49.91;100015.25;4921540;29;20096;-84
2021/05/24 05:58:58;;;;;;;0.95;0.70;;;15.60;99.90;;;16.88;49.93;99999.91;4922182;29;20121;-85
2021/05/24 06:01:24;;;;;;;3.40;0.80;;;15.80;99.90;;;17.01;50.00;100009.44;4921194;29;20035;-83
2021/05/24 06:03:50;;;;;;;2.15;0.43;;;15.90;99.90;;;17.10;49.32;100008.97;4925076;29;20023;-85
2021/05/24 06:06:18;;;;;;;1.38;0.38;;;16.00;99.40;;;17.24;49.27;99995.50;4938937;29;20040;-85
2021/05/24 06:08:44;;;;;;;1.73;0.70;;;16.10;98.70;;;17.14;48.66;100004.91;4923152;29;20031;-85
2021/05/24 06:11:10;;;;;;;4.25;0.70;;;16.20;96.00;;;17.35;48.07;99999.03;4938619;29;20028;-83
2021/05/24 06:16:14;;;;;;;2.67;0.70;;;16.40;94.50;;;17.98;46.12;99979.72;4908545;29;20045;-86
2021/05/24 06:18:41;;;;;;;5.18;0.85;;;16.60;92.00;;;18.03;47.05;99982.06;4885435;29;20064;-86
2021/05/24 06:21:08;;;;;;;3.47;0.70;;;16.80;92.40;;;18.00;46.04;99973.66;4900968;29;20032;-84
2021/05/24 06:23:34;;;;;;;2.45;0.68;;;16.90;88.80;;;17.97;46.21;99975.31;4899985;29;20085;-83
2021/05/24 06:26:00;;;;;;;2.83;0.50;;;17.00;88.00;;;17.56;46.45;99983.91;4880820;29;20098;-84
2021/05/24 06:28:26;;;;;;;2.53;0.50;;;16.80;85.10;;;17.57;46.53;99974.19;4894723;29;20025;-76
2021/05/24 06:30:53;;;;;;;3.80;0.70;;;16.70;86.90;;;17.90;46.56;99978.22;4901527;29;20047;-79
2021/05/24 06:33:19;;;;;;;4.13;0.70;;;16.90;87.00;;;18.10;45.22;99975.53;4901919;29;20041;-78
2021/05/24 06:35:45;;;;;;;2.17;0.77;;;17.00;83.20;;;17.86;45.99;99968.97;4885594;29;20044;-84
2021/05/24 06:38:10;;;;;;;1.20;0.50;;;16.90;83.10;;;18.34;45.04;99966.66;4881775;29;20029;-81
2021/05/24 06:40:37;;;;;;;2.75;0.50;;;17.20;82.60;;;18.13;45.28;99966.19;4882884;29;20040;-83
2021/05/24 06:43:03;;;;;;;2.08;0.50;;;17.20;81.10;;;18.34;45.77;99969.50;4882080;29;20033;-83
2021/05/24 06:45:36;;;;;;;3.28;0.60;;;17.30;82.40;;;18.32;45.04;99960.66;4887579;29;20059;-82
2021/05/24 06:48:02;;;;;;;1.95;0.50;;;17.40;79.30;;;19.10;43.64;99956.53;4883335;29;20056;-86
2021/05/24 06:50:29;;;;;;;2.00;0.57;;;17.60;78.70;;;18.75;44.12;99957.19;4884076;29;20044;-86
2021/05/24 06:52:56;;;;;;;2.70;0.95;;;17.70;77.60;;;18.91;44.01;99948.81;4882394;29;20041;-82
2021/05/24 06:55:22;;;;;;;2.38;0.60;;;17.80;76.80;;;19.16;43.55;99951.97;4883369;29;20037;-85
2021/05/24 06:57:48;;;;;;;2.15;0.40;;;18.00;75.80;;;19.45;42.13;99949.41;4883699;29;20040;-85
2021/05/24 07:00:15;;;;;;;1.55;0.50;;;18.30;73.00;;;19.13;42.16;99954.88;4882924;29;20486;-86
2021/05/24 07:02:42;;;;;;;3.20;0.50;;;18.10;70.80;;;19.68;40.90;99943.66;4896354;29;20224;-86
2021/05/24 07:05:10;;;;;;;2.08;0.57;;;18.40;70.20;;;19.49;40.61;99946.53;4886786;29;20036;-86
2021/05/24 07:07:37;;;;;;;4.90;0.45;;;18.30;68.20;;;19.97;41.14;99941.81;4885597;29;20033;-86
2021/05/24 07:10:07;;;;;;;3.13;0.50;;;18.40;70.20;;;19.50;41.82;99945.25;4881736;29;20066;-85
2021/05/24 07:12:33;;;;;;;3.28;0.43;;;18.50;69.00;;;19.28;41.02;99950.53;4888297;29;20025;-83
2021/05/24 07:15:02;;;;;;;2.88;0.65;;;18.40;67.20;;;19.20;42.19;99943.41;4888943;29;20059;-80
2021/05/24 07:17:28;;;;;;;5.03;0.70;;;18.20;68.60;;;19.62;41.35;99953.13;4901822;29;20069;-78
2021/05/24 07:19:54;;;;;;;4.20;0.47;;;18.30;68.30;;;19.76;41.59;99947.94;4898230;29;20398;-86
2021/05/24 07:22:20;;;;;;;2.17;0.47;;;18.50;68.90;;;19.80;39.96;99960.03;4888952;29;20033;-79
2021/05/24 07:24:45;;;;;;;1.33;0.52;;;18.50;66.00;;;19.81;40.89;99938.94;4901066;29;20050;-80
2021/05/24 07:27:12;;;;;;;2.50;0.43;;;18.60;66.70;;;20.11;39.72;99937.84;4900847;29;20040;-79
2021/05/24 07:29:39;;;;;;;2.22;0.50;;;18.80;66.80;;;19.72;40.71;99935.09;4900668;29;20101;-76
2021/05/24 07:32:11;;;;;;;2.42;0.77;;;18.60;66.20;;;19.89;40.88;99940.38;4897763;29;20054;-85
2021/05/24 07:34:40;;;;;;;1.30;0.50;;;18.70;67.00;;;20.21;41.14;99930.34;4889858;29;20469;-84
2021/05/24 07:37:08;;;;;;;1.52;0.60;;;18.90;67.10;;;20.72;39.01;99938.03;4892062;29;20085;-85
2021/05/24 07:39:36;;;;;;;2.10;0.50;;;19.30;65.20;;;20.61;40.50;99917.66;4886264;29;20028;-84
2021/05/24 07:42:05;;;;;;;2.53;0.80;;;19.30;66.40;;;20.45;39.59;99929.00;4884525;29;20082;-83
2021/05/24 07:44:33;;;;;;;2.47;0.50;;;19.30;64.40;;;20.34;40.19;99923.56;4908956;29;20043;-83
2021/05/24 07:47:03;;;;;;;2.92;0.60;;;19.40;64.40;;;21.00;39.62;99906.03;4903833;29;20040;-83
2021/05/24 07:49:29;;;;;;;3.45;0.70;;;19.50;65.80;;;21.46;40.34;99898.31;4903389;29;20039;-84
2021/05/24 07:51:57;;;;;;;2.50;0.45;;;20.00;66.40;;;22.06;37.69;99902.97;4904171;29;20033;-84
2021/05/24 07:54:23;;;;;;;4.15;0.57;;;20.40;62.60;;;21.90;37.67;99905.13;4902759;29;20481;-83
2021/05/24 07:56:51;;;;;;;3.22;0.80;;;20.40;61.60;;;21.76;39.12;99900.66;4905449;29;20044;-85
2021/05/24 07:59:18;;;;;;;3.83;0.55;;;20.50;62.90;;;21.13;38.54;99897.63;4904030;29;20032;-85
2021/05/24 08:01:44;;;;;;;1.42;0.50;;;20.20;60.50;;;21.52;39.36;99891.63;4903764;29;20037;-84
2021/05/24 08:04:14;;;;;;;1.42;0.40;;;20.30;62.70;;;21.24;38.70;99886.75;4904686;29;20121;-84
2021/05/24 08:06:59;;;;;;;4.05;0.50;;;20.10;61.70;;;21.11;38.76;99882.28;4909371;29;20033;-85
2021/05/24 08:09:25;;;;;;;1.77;0.52;;;20.00;60.90;;;20.97;38.57;99895.59;4908533;29;20032;-83
2021/05/24 08:11:52;;;;;;;3.78;0.70;;;20.00;60.50;;;20.48;39.36;99889.16;4905898;29;20044;-83
2021/05/24 08:14:18;;;;;;;2.50;0.77;;;19.80;61.00;;;21.14;38.72;99887.06;4905246;29;20028;-85
2021/05/24 08:16:49;;;;;;;1.27;0.50;;;19.90;61.90;;;21.47;39.25;99885.69;4905651;29;20059;-85
2021/05/24 08:19:19;;;;;;;2.70;0.80;;;20.20;62.90;;;21.46;37.89;99895.47;4906459;29;20036;-85
2021/05/24 08:21:51;;;;;;;2.53;0.57;;;20.40;60.40;;;22.28;36.70;99885.25;4905390;29;20485;-86
2021/05/24 08:24:19;;;;;;;1.83;0.70;;;20.80;59.10;;;22.33;37.42;99898.88;4906149;29;20059;-82
2021/05/24 08:26:47;;;;;;;3.10;1.10;;;20.90;59.50;;;21.90;37.08;99893.75;4903996;29;20413;-85
2021/05/24 08:29:28;;;;;;;3.15;1.13;;;20.80;58.40;;;21.49;36.72;99881.16;4904103;29;20029;-84
2021/05/24 08:31:59;;;;;;;2.10;0.65;;;20.40;57.90;;;20.48;38.59;99892.00;4903609;29;20165;-80
2021/05/24 08:34:26;;;;;;;4.95;1.05;;;19.80;59.50;;;20.41;39.75;99885.72;4904606;29;20493;-85
2021/05/24 08:36:55;;;;;;;2.13;0.55;;;19.40;61.10;;;20.69;37.75;99885.00;4904061;29;20058;-85
2021/05/24 08:39:40;;;;;;;2.17;0.70;;;19.50;60.30;;;20.93;38.41;99880.69;4903895;29;20035;-84
2021/05/24 08:42:11;;;;;;;4.88;0.95;;;19.70;60.10;;;21.12;38.50;99872.53;4904088;29;20052;-83
2021/05/24 08:44:41;;;;;;;4.55;0.80;;;19.90;60.00;;;21.16;39.09;99887.44;4901724;29;20047;-85
2021/05/24 08:47:11;;;;;;;4.53;0.90;;;20.00;60.50;;;21.71;37.82;99889.84;4901568;29;20512;-83
2021/05/24 08:49:37;;;;;;;2.70;0.80;;;20.30;59.70;;;21.20;37.17;99877.53;4884141;29;20040;-84
2021/05/24 08:52:05;;;;;;;3.72;0.70;;;20.20;58.40;;;20.95;37.46;99888.75;4884895;29;20097;-83
2021/05/24 08:54:37;;;;;;;2.78;0.90;;;20.00;58.10;;;21.30;36.54;99878.47;4884700;29;20029;-83
2021/05/24 08:57:05;;;;;;;3.13;1.10;;;20.20;57.20;;;21.35;37.16;99856.00;4882574;29;20033;-83
2021/05/24 08:59:30;;;;;;;4.20;0.85;;;20.20;57.90;;;20.76;37.76;99867.00;4885025;29;20033;-81
2021/05/24 09:01:56;;;;;;;2.42;0.52;;;19.90;58.00;;;20.69;37.83;99885.00;4884129;29;20200;-82
2021/05/24 09:04:51;;;;;;;5.43;0.80;;;19.70;58.30;;;20.57;38.35;99862.22;4883414;29;20120;-83
2021/05/24 09:07:19;;;;;;;3.72;0.70;;;19.60;59.70;;;20.83;38.46;99890.31;4885294;29;20036;-83
2021/05/24 09:10:06;;;;;;;1.38;0.60;;;19.60;59.60;;;20.32;36.87;99854.38;4883284;29;20032;-82
2021/05/24 09:12:32;;;;;;;4.28;0.90;;;19.40;56.80;;;20.45;38.03;99870.19;4884349;29;20029;-84
2021/05/24 09:15:06;;;;;;;2.28;0.70;;;19.40;58.90;;;20.94;37.88;99861.63;4884796;29;20059;-83
2021/05/24 09:17:57;;;;;;;2.92;0.80;;;19.60;59.40;;;20.79;37.88;99860.41;4883795;29;20441;-83
2021/05/24 09:20:23;;;;;;;2.30;0.90;;;19.60;59.00;;;21.19;37.28;99847.53;4885131;29;20033;-81
2021/05/24 09:23:16;;;;;;;1.42;0.50;;;19.70;58.90;;;20.46;38.80;99848.31;4883524;29;20378;-85
2021/05/24 09:26:13;;;;;;;1.70;0.70;;;19.40;59.90;;;20.07;40.24;99834.31;4883910;29;20037;-86
2021/05/24 09:28:51;;;;;;;1.38;0.45;;;19.10;61.30;;;19.69;40.10;99822.66;4884604;29;20041;-83
2021/05/24 09:31:32;;;;;;;1.95;0.57;;;18.80;60.30;;;19.53;39.99;99826.25;4884967;29;20414;-84
2021/05/24 09:34:00;;;;;;;2.30;0.52;;;18.50;61.60;;;19.13;41.33;99833.16;4870535;29;20041;-85
2021/05/24 09:36:37;;;;;;;4.70;0.70;;;18.10;63.00;;;19.17;40.97;99819.75;4885617;29;20032;-84
2021/05/24 09:39:35;;;;;;;4.53;0.60;;;18.00;63.50;;;19.29;41.39;99819.88;4884224;29;20063;-84
2021/05/24 09:42:46;;;;;;;2.83;0.52;;;17.90;64.80;;;19.67;41.67;99822.31;4883598;29;20064;-87
2021/05/24 09:45:25;;;;;;;2.72;0.50;;;18.10;66.00;;;19.69;41.75;99814.16;4882148;29;20519;-85
2021/05/24 09:48:00;;;;;;;1.30;0.50;;;18.40;66.20;;;20.27;39.97;99818.81;4896837;29;20037;-81
2021/05/24 09:50:36;;;;;;;1.70;0.60;;;18.70;64.10;;;20.04;39.83;99821.81;4893724;29;20037;-84
2021/05/24 10:02:13;;;;;;;1.45;0.40;;;18.10;65.70;;;18.95;42.50;99805.22;4919011;29;20181;-84
2021/05/24 10:04:51;;;;;;;1.57;0.70;;;17.90;66.80;;;19.20;42.61;99810.38;4919739;29;20036;-86
2021/05/24 10:07:17;;;;;;;3.78;0.93;;;17.80;67.70;;;19.01;42.28;99799.88;4919373;29;20316;-81
2021/05/24 10:09:43;;;;;;;4.78;0.90;;;17.80;66.70;;;18.81;42.71;99805.50;4917401;29;20055;-84
2021/05/24 10:12:26;;;;;;;2.05;0.50;;;17.80;66.50;;;19.05;42.79;99789.25;4917812;29;20048;-86
2021/05/24 10:14:54;;;;;;;3.65;0.90;;;17.80;67.50;;;19.02;42.38;99781.63;4920048;29;20095;-85
2021/05/24 10:17:21;;;;;;;1.45;0.57;;;17.90;66.90;;;19.21;42.08;99809.91;4919842;29;20115;-81
2021/05/24 10:19:48;;;;;;;3.13;0.70;;;18.00;66.60;;;19.09;42.45;99787.16;4921883;29;20028;-82
2021/05/24 10:22:23;;;;;;;3.28;0.70;;;18.00;66.40;;;19.04;42.33;99788.44;4921568;29;20090;-84
2021/05/24 10:24:53;;;;;;;7.82;1.05;;;18.00;66.10;;;18.96;42.33;99798.31;4921561;29;20032;-81
2021/05/24 10:27:23;;;;;;;2.03;0.57;;;18.10;65.30;;;19.46;41.97;99783.91;4920515;29;20036;-84
2021/05/24 10:30:06;;;;;;;1.67;0.50;;;18.30;66.10;;;19.78;41.26;99781.13;4919599;29;20047;-83
2021/05/24 10:32:34;;;;;;;2.67;0.57;;;18.60;65.10;;;20.56;41.20;99775.53;4920538;29;20086;-85
2021/05/24 10:35:39;;;;;;;1.45;0.52;;;19.00;66.10;;;20.63;40.16;99781.00;4921068;29;20035;-84
2021/05/24 10:38:32;;;;;;;5.50;0.73;;;19.20;63.70;;;20.71;40.62;99771.84;4922838;29;20067;-86